sensor_id;sensor_type;location;lat;lon;timestamp;pressure;altitude;pressure_sealevel;temperature;humidity
55032;BME280;40928;51.076;7.950;2023-07-02T00:00:36;96309.09;;;14.48;100.00
55032;BME280;40928;51.076;7.950;2023-07-02T00:03:04;96303.44;;;14.49;100.00
55032;BME280;40928;51.076;7.950;2023-07-02T00:05:30;96301.53;;;14.50;100.00
55032;BME280;40928;51.076;7.950;2023-07-02T00:07:55;96297.25;;;14.49;100.00
55032;BME280;40928;51.076;7.950;2023-07-02T00:10:21;96302.06;;;14.52;100.00
55032;BME280;40928;51.076;7.950;2023-07-02T00:12:46;96301.03;;;14.48;100.00
55032;BME280;40928;51.076;7.950;2023-07-02T00:15:12;96299.47;;;14.41;100.00
55032;BME280;40928;51.076;7.950;2023-07-02T00:17:37;96298.41;;;14.42;100.00
55032;BME280;40928;51.076;7.950;2023-07-02T00:20:07;96294.41;;;14.40;100.00
55032;BME280;40928;51.076;7.950;2023-07-02T00:22:39;96292.50;;;14.40;100.00
55032;BME280;40928;51.076;7.950;2023-07-02T00:25:12;96300.25;;;14.42;100.00
55032;BME280;40928;51.076;7.950;2023-07-02T00:27:38;96295.72;;;14.42;100.00
55032;BME280;40928;51.076;7.950;2023-07-02T00:30:04;96304.81;;;14.46;100.00
55032;BME280;40928;51.076;7.950;2023-07-02T00:32:30;96298.06;;;14.49;100.00
55032;BME280;40928;51.076;7.950;2023-07-02T00:34:55;96294.56;;;14.49;100.00
55032;BME280;40928;51.076;7.950;2023-07-02T00:37:21;96299.94;;;14.49;100.00
55032;BME280;40928;51.076;7.950;2023-07-02T00:39:46;96297.25;;;14.49;100.00
55032;BME280;40928;51.076;7.950;2023-07-02T00:42:12;96301.34;;;14.41;100.00
55032;BME280;40928;51.076;7.950;2023-07-02T00:44:37;96303.53;;;14.39;100.00
55032;BME280;40928;51.076;7.950;2023-07-02T00:47:07;96289.81;;;14.40;100.00
55032;BME280;40928;51.076;7.950;2023-07-02T00:49:33;96298.16;;;14.39;100.00
55032;BME280;40928;51.076;7.950;2023-07-02T00:51:59;96289.59;;;14.37;100.00
55032;BME280;40928;51.076;7.950;2023-07-02T00:54:28;96290.94;;;14.34;100.00
55032;BME280;40928;51.076;7.950;2023-07-02T00:56:54;96289.91;;;14.30;100.00
55032;BME280;40928;51.076;7.950;2023-07-02T00:59:20;96294.75;;;14.28;100.00
55032;BME280;40928;51.076;7.950;2023-07-02T01:01:45;96283.72;;;14.29;100.00
55032;BME280;40928;51.076;7.950;2023-07-02T01:04:18;96290.47;;;14.27;100.00
55032;BME280;40928;51.076;7.950;2023-07-02T01:06:44;96299.03;;;14.29;100.00
55032;BME280;40928;51.076;7.950;2023-07-02T01:09:11;96288.09;;;14.20;100.00
55032;BME280;40928;51.076;7.950;2023-07-02T01:11:49;96298.53;;;14.22;100.00
55032;BME280;40928;51.076;7.950;2023-07-02T01:17:06;96304.47;;;14.19;100.00
55032;BME280;40928;51.076;7.950;2023-07-02T01:20:08;96306.06;;;14.20;100.00
55032;BME280;40928;51.076;7.950;2023-07-02T01:22:34;96305.53;;;14.18;100.00
55032;BME280;40928;51.076;7.950;2023-07-02T01:25:01;96295.66;;;14.13;100.00
55032;BME280;40928;51.076;7.950;2023-07-02T01:27:30;96300.78;;;14.09;100.00
55032;BME280;40928;51.076;7.950;2023-07-02T01:29:56;96300.53;;;14.06;100.00
55032;BME280;40928;51.076;7.950;2023-07-02T01:32:22;96301.09;;;14.03;100.00
55032;BME280;40928;51.076;7.950;2023-07-02T01:34:49;96303.03;;;13.97;100.00
55032;BME280;40928;51.076;7.950;2023-07-02T01:37:19;96294.97;;;13.97;100.00
55032;BME280;40928;51.076;7.950;2023-07-02T01:39:45;96303.03;;;13.97;100.00
55032;BME280;40928;51.076;7.950;2023-07-02T01:44:36;96300.34;;;13.97;100.00
55032;BME280;40928;51.076;7.950;2023-07-02T01:47:02;96303.63;;;13.83;100.00
55032;BME280;40928;51.076;7.950;2023-07-02T01:49:28;96309.00;;;13.83;100.00
55032;BME280;40928;51.076;7.950;2023-07-02T01:51:55;96302.28;;;13.86;100.00
55032;BME280;40928;51.076;7.950;2023-07-02T01:54:23;96304.66;;;13.93;100.00
55032;BME280;40928;51.076;7.950;2023-07-02T01:56:49;96306.28;;;13.89;100.00
55032;BME280;40928;51.076;7.950;2023-07-02T01:59:15;96308.16;;;13.93;100.00
55032;BME280;40928;51.076;7.950;2023-07-02T02:01:42;96307.88;;;13.90;100.00
55032;BME280;40928;51.076;7.950;2023-07-02T02:04:08;96315.16;;;13.89;100.00
55032;BME280;40928;51.076;7.950;2023-07-02T02:06:34;96312.78;;;13.82;100.00
55032;BME280;40928;51.076;7.950;2023-07-02T02:09:02;96312.78;;;13.82;100.00
55032;BME280;40928;51.076;7.950;2023-07-02T02:11:32;96317.06;;;13.78;100.00
55032;BME280;40928;51.076;7.950;2023-07-02T02:13:58;96312.25;;;13.75;100.00
55032;BME280;40928;51.076;7.950;2023-07-02T02:16:26;96314.94;;;13.80;100.00
55032;BME280;40928;51.076;7.950;2023-07-02T02:18:52;96314.94;;;13.80;100.00
55032;BME280;40928;51.076;7.950;2023-07-02T02:21:20;96310.19;;;13.62;100.00
55032;BME280;40928;51.076;7.950;2023-07-02T02:23:46;96315.78;;;13.70;100.00
55032;BME280;40928;51.076;7.950;2023-07-02T02:26:11;96319.53;;;13.69;100.00
55032;BME280;40928;51.076;7.950;2023-07-02T02:28:37;96316.56;;;13.71;100.00
55032;BME280;40928;51.076;7.950;2023-07-02T02:31:03;96318.16;;;13.72;100.00
55032;BME280;40928;51.076;7.950;2023-07-02T02:33:32;96315.75;;;13.76;100.00
55032;BME280;40928;51.076;7.950;2023-07-02T02:35:58;96314.69;;;13.72;100.00
55032;BME280;40928;51.076;7.950;2023-07-02T02:38:24;96315.25;;;13.68;100.00
55032;BME280;40928;51.076;7.950;2023-07-02T02:40:49;96316.06;;;13.69;100.00
55032;BME280;40928;51.076;7.950;2023-07-02T02:43:18;96316.59;;;13.66;100.00
55032;BME280;40928;51.076;7.950;2023-07-02T02:45:45;96319.00;;;13.67;100.00
55032;BME280;40928;51.076;7.950;2023-07-02T02:48:11;96312.06;;;13.61;100.00
55032;BME280;40928;51.076;7.950;2023-07-02T02:50:37;96315.00;;;13.65;100.00
55032;BME280;40928;51.076;7.950;2023-07-02T02:53:10;96313.63;;;13.67;100.00
55032;BME280;40928;51.076;7.950;2023-07-02T02:55:36;96300.53;;;13.61;100.00
55032;BME280;40928;51.076;7.950;2023-07-02T02:58:02;96296.53;;;13.58;100.00
55032;BME280;40928;51.076;7.950;2023-07-02T03:00:28;96289.25;;;13.59;100.00
55032;BME280;40928;51.076;7.950;2023-07-02T03:02:53;96296.47;;;13.63;100.00
55032;BME280;40928;51.076;7.950;2023-07-02T03:05:19;96288.47;;;13.58;100.00
55032;BME280;40928;51.076;7.950;2023-07-02T03:07:45;96291.16;;;13.58;100.00
55032;BME280;40928;51.076;7.950;2023-07-02T03:10:10;96299.22;;;13.53;100.00
55032;BME280;40928;51.076;7.950;2023-07-02T03:12:36;96291.72;;;13.55;100.00
55032;BME280;40928;51.076;7.950;2023-07-02T03:15:02;96304.88;;;13.46;100.00
55032;BME280;40928;51.076;7.950;2023-07-02T03:17:27;96308.09;;;13.48;100.00
55032;BME280;40928;51.076;7.950;2023-07-02T03:19:53;96314.00;;;13.45;100.00
55032;BME280;40928;51.076;7.950;2023-07-02T03:22:18;96315.63;;;13.41;100.00
55032;BME280;40928;51.076;7.950;2023-07-02T03:24:44;96324.47;;;13.36;100.00
55032;BME280;40928;51.076;7.950;2023-07-02T03:27:10;96323.41;;;13.37;100.00
55032;BME280;40928;51.076;7.950;2023-07-02T03:29:35;96330.13;;;13.30;100.00
55032;BME280;40928;51.076;7.950;2023-07-02T03:32:01;96334.41;;;13.36;100.00
55032;BME280;40928;51.076;7.950;2023-07-02T03:34:27;96329.06;;;13.31;100.00
55032;BME280;40928;51.076;7.950;2023-07-02T03:36:53;96329.06;;;13.25;100.00
55032;BME280;40928;51.076;7.950;2023-07-02T03:39:18;96322.31;;;13.33;100.00
55032;BME280;40928;51.076;7.950;2023-07-02T03:41:44;96327.44;;;13.30;100.00
55032;BME280;40928;51.076;7.950;2023-07-02T03:44:10;96325.03;;;13.28;100.00
55032;BME280;40928;51.076;7.950;2023-07-02T03:46:36;96339.50;;;13.32;100.00
55032;BME280;40928;51.076;7.950;2023-07-02T03:49:05;96337.34;;;13.39;100.00
55032;BME280;40928;51.076;7.950;2023-07-02T03:51:31;96340.31;;;13.38;100.00
55032;BME280;40928;51.076;7.950;2023-07-02T03:53:58;96340.03;;;13.34;100.00
55032;BME280;40928;51.076;7.950;2023-07-02T03:56:24;96351.81;;;13.38;100.00
55032;BME280;40928;51.076;7.950;2023-07-02T03:58:49;96349.69;;;13.40;100.00
55032;BME280;40928;51.076;7.950;2023-07-02T04:01:15;96335.22;;;13.42;100.00
55032;BME280;40928;51.076;7.950;2023-07-02T04:03:47;96344.88;;;13.43;100.00
55032;BME280;40928;51.076;7.950;2023-07-02T04:06:13;96347.28;;;13.34;100.00
55032;BME280;40928;51.076;7.950;2023-07-02T04:08:38;96354.25;;;13.40;100.00
55032;BME280;40928;51.076;7.950;2023-07-02T04:11:04;96360.44;;;13.40;100.00
55032;BME280;40928;51.076;7.950;2023-07-02T04:13:29;96356.94;;;13.40;100.00
55032;BME280;40928;51.076;7.950;2023-07-02T04:15:55;96367.41;;;13.42;100.00
55032;BME280;40928;51.076;7.950;2023-07-02T04:18:21;96363.38;;;13.39;100.00
55032;BME280;40928;51.076;7.950;2023-07-02T04:20:46;96370.88;;;13.37;100.00
55032;BME280;40928;51.076;7.950;2023-07-02T04:23:12;96366.31;;;13.37;100.00
55032;BME280;40928;51.076;7.950;2023-07-02T04:25:37;96367.66;;;13.30;100.00
55032;BME280;40928;51.076;7.950;2023-07-02T04:28:03;96374.88;;;13.34;100.00
55032;BME280;40928;51.076;7.950;2023-07-02T04:30:28;96372.47;;;13.38;100.00
55032;BME280;40928;51.076;7.950;2023-07-02T04:32:54;96379.44;;;13.39;100.00
55032;BME280;40928;51.076;7.950;2023-07-02T04:35:19;96377.84;;;13.33;100.00
55032;BME280;40928;51.076;7.950;2023-07-02T04:37:45;96381.88;;;13.40;100.00
55032;BME280;40928;51.076;7.950;2023-07-02T04:40:11;96372.19;;;13.34;100.00
55032;BME280;40928;51.076;7.950;2023-07-02T04:42:40;96380.81;;;13.31;100.00
55032;BME280;40928;51.076;7.950;2023-07-02T04:45:07;96375.16;;;13.33;100.00
55032;BME280;40928;51.076;7.950;2023-07-02T04:47:34;96383.22;;;13.28;100.00
55032;BME280;40928;51.076;7.950;2023-07-02T04:50:00;96382.41;;;13.32;100.00
55032;BME280;40928;51.076;7.950;2023-07-02T04:52:26;96388.56;;;13.33;100.00
55032;BME280;40928;51.076;7.950;2023-07-02T04:54:52;96389.66;;;13.32;100.00
55032;BME280;40928;51.076;7.950;2023-07-02T04:57:17;96382.13;;;13.29;100.00
55032;BME280;40928;51.076;7.950;2023-07-02T04:59:43;96381.88;;;13.30;100.00
55032;BME280;40928;51.076;7.950;2023-07-02T05:02:09;96392.63;;;13.30;100.00
55032;BME280;40928;51.076;7.950;2023-07-02T05:04:35;96392.63;;;13.30;100.00
55032;BME280;40928;51.076;7.950;2023-07-02T05:07:03;96388.56;;;13.28;100.00
55032;BME280;40928;51.076;7.950;2023-07-02T05:09:30;96393.69;;;13.24;100.00
55032;BME280;40928;51.076;7.950;2023-07-02T05:11:56;96399.59;;;13.21;100.00
55032;BME280;40928;51.076;7.950;2023-07-02T05:14:22;96395.84;;;13.17;100.00
55032;BME280;40928;51.076;7.950;2023-07-02T05:16:48;96401.47;;;13.15;100.00
55032;BME280;40928;51.076;7.950;2023-07-02T05:19:14;96403.34;;;13.25;100.00
55032;BME280;40928;51.076;7.950;2023-07-02T05:21:40;96409.25;;;13.22;100.00
55032;BME280;40928;51.076;7.950;2023-07-02T05:24:06;96420.75;;;13.28;100.00
55032;BME280;40928;51.076;7.950;2023-07-02T05:26:32;96421.31;;;13.14;100.00
55032;BME280;40928;51.076;7.950;2023-07-02T05:28:58;96419.69;;;13.13;100.00
55032;BME280;40928;51.076;7.950;2023-07-02T05:31:24;96418.34;;;13.16;100.00
55032;BME280;40928;51.076;7.950;2023-07-02T05:33:49;96419.97;;;13.22;100.00
55032;BME280;40928;51.076;7.950;2023-07-02T05:36:15;96421.81;;;13.27;100.00
55032;BME280;40928;51.076;7.950;2023-07-02T05:38:40;96422.38;;;13.18;100.00
55032;BME280;40928;51.076;7.950;2023-07-02T05:41:06;96422.63;;;13.17;100.00
55032;BME280;40928;51.076;7.950;2023-07-02T05:43:31;96430.44;;;13.23;100.00
55032;BME280;40928;51.076;7.950;2023-07-02T05:46:00;96426.41;;;13.26;100.00
55032;BME280;40928;51.076;7.950;2023-07-02T05:48:26;96433.38;;;13.22;100.00
55032;BME280;40928;51.076;7.950;2023-07-02T05:50:52;96429.34;;;13.19;100.00
55032;BME280;40928;51.076;7.950;2023-07-02T05:53:18;96432.56;;;13.11;100.00
55032;BME280;40928;51.076;7.950;2023-07-02T05:55:44;96432.56;;;13.16;100.00
55032;BME280;40928;51.076;7.950;2023-07-02T05:58:10;96431.75;;;13.21;100.00
55032;BME280;40928;51.076;7.950;2023-07-02T06:00:36;96438.72;;;13.22;100.00
55032;BME280;40928;51.076;7.950;2023-07-02T06:03:01;96444.34;;;13.25;100.00
55032;BME280;40928;51.076;7.950;2023-07-02T06:05:27;96445.69;;;13.23;100.00
55032;BME280;40928;51.076;7.950;2023-07-02T06:07:52;96445.69;;;13.18;100.00
55032;BME280;40928;51.076;7.950;2023-07-02T06:10:18;96445.97;;;13.21;100.00
55032;BME280;40928;51.076;7.950;2023-07-02T06:12:43;96447.03;;;13.25;100.00
55032;BME280;40928;51.076;7.950;2023-07-02T06:15:09;96449.97;;;13.19;100.00
55032;BME280;40928;51.076;7.950;2023-07-02T06:17:35;96450.28;;;13.22;100.00
55032;BME280;40928;51.076;7.950;2023-07-02T06:20:03;96459.09;;;13.28;100.00
55032;BME280;40928;51.076;7.950;2023-07-02T06:22:30;96456.69;;;13.37;100.00
55032;BME280;40928;51.076;7.950;2023-07-02T06:24:56;96451.59;;;13.46;100.00
55032;BME280;40928;51.076;7.950;2023-07-02T06:27:21;96455.03;;;13.57;100.00
55032;BME280;40928;51.076;7.950;2023-07-02T06:29:47;96453.41;;;13.71;100.00
55032;BME280;40928;51.076;7.950;2023-07-02T06:32:12;96460.91;;;13.79;100.00
55032;BME280;40928;51.076;7.950;2023-07-02T06:34:38;96458.72;;;13.92;100.00
55032;BME280;40928;51.076;7.950;2023-07-02T06:37:04;96458.19;;;13.90;100.00
55032;BME280;40928;51.076;7.950;2023-07-02T06:39:30;96467.56;;;13.92;100.00
55032;BME280;40928;51.076;7.950;2023-07-02T06:41:55;96469.41;;;14.02;100.00
55032;BME280;40928;51.076;7.950;2023-07-02T06:44:27;96473.97;;;14.07;100.00
55032;BME280;40928;51.076;7.950;2023-07-02T06:46:53;96476.06;;;14.10;100.00
55032;BME280;40928;51.076;7.950;2023-07-02T06:49:18;96482.25;;;14.15;100.00
55032;BME280;40928;51.076;7.950;2023-07-02T06:51:44;96469.63;;;14.16;100.00
55032;BME280;40928;51.076;7.950;2023-07-02T06:54:10;96478.22;;;14.13;100.00
55032;BME280;40928;51.076;7.950;2023-07-02T06:56:36;96481.84;;;13.82;100.00
55032;BME280;40928;51.076;7.950;2023-07-02T06:59:01;96484.19;;;13.94;100.00
55032;BME280;40928;51.076;7.950;2023-07-02T07:01:27;96488.72;;;14.04;100.00
55032;BME280;40928;51.076;7.950;2023-07-02T07:03:52;96497.06;;;14.03;100.00
55032;BME280;40928;51.076;7.950;2023-07-02T07:06:18;96493.78;;;14.11;100.00
55032;BME280;40928;51.076;7.950;2023-07-02T07:08:43;96501.00;;;14.26;100.00
55032;BME280;40928;51.076;7.950;2023-07-02T07:11:09;96498.81;;;14.33;100.00
55032;BME280;40928;51.076;7.950;2023-07-02T07:13:35;96496.63;;;14.40;100.00
55032;BME280;40928;51.076;7.950;2023-07-02T07:16:00;96507.91;;;14.37;100.00
55032;BME280;40928;51.076;7.950;2023-07-02T07:18:26;96488.56;;;14.45;100.00
55032;BME280;40928;51.076;7.950;2023-07-02T07:20:51;96498.94;;;14.57;100.00
55032;BME280;40928;51.076;7.950;2023-07-02T07:23:21;96495.44;;;14.62;100.00
55032;BME280;40928;51.076;7.950;2023-07-02T07:25:47;96498.38;;;14.71;100.00
55032;BME280;40928;51.076;7.950;2023-07-02T07:28:12;96506.19;;;14.62;100.00
55032;BME280;40928;51.076;7.950;2023-07-02T07:30:44;96503.22;;;14.64;100.00
55032;BME280;40928;51.076;7.950;2023-07-02T07:33:10;96498.44;;;14.55;100.00
55032;BME280;40928;51.076;7.950;2023-07-02T07:35:35;96498.06;;;14.77;100.00
55032;BME280;40928;51.076;7.950;2023-07-02T07:38:01;96504.97;;;14.89;100.00
55032;BME280;40928;51.076;7.950;2023-07-02T07:40:27;96508.13;;;15.01;100.00
55032;BME280;40928;51.076;7.950;2023-07-02T07:42:53;96505.31;;;15.17;100.00
55032;BME280;40928;51.076;7.950;2023-07-02T07:45:18;96500.91;;;15.26;100.00
55032;BME280;40928;51.076;7.950;2023-07-02T07:47:44;96509.00;;;15.26;100.00
55032;BME280;40928;51.076;7.950;2023-07-02T07:50:09;96501.19;;;15.30;100.00
55032;BME280;40928;51.076;7.950;2023-07-02T07:52:37;96501.19;;;15.30;100.00
55032;BME280;40928;51.076;7.950;2023-07-02T07:55:03;96508.94;;;15.36;100.00
55032;BME280;40928;51.076;7.950;2023-07-02T07:57:28;96508.69;;;15.33;100.00
55032;BME280;40928;51.076;7.950;2023-07-02T07:59:54;96500.84;;;15.36;100.00
55032;BME280;40928;51.076;7.950;2023-07-02T08:02:19;96513.16;;;15.43;100.00
55032;BME280;40928;51.076;7.950;2023-07-02T08:04:48;96514.69;;;15.54;100.00
55032;BME280;40928;51.076;7.950;2023-07-02T08:07:13;96513.75;;;15.40;100.00
55032;BME280;40928;51.076;7.950;2023-07-02T08:09:39;96522.63;;;15.35;100.00
55032;BME280;40928;51.076;7.950;2023-07-02T08:12:05;96520.47;;;15.37;100.00
55032;BME280;40928;51.076;7.950;2023-07-02T08:14:30;96522.63;;;15.35;100.00
55032;BME280;40928;51.076;7.950;2023-07-02T08:16:56;96523.91;;;15.43;100.00
55032;BME280;40928;51.076;7.950;2023-07-02T08:19:21;96526.56;;;15.48;100.00
55032;BME280;40928;51.076;7.950;2023-07-02T08:21:49;96525.69;;;15.58;100.00
55032;BME280;40928;51.076;7.950;2023-07-02T08:24:14;96534.22;;;15.65;100.00
55032;BME280;40928;51.076;7.950;2023-07-02T08:26:40;96538.78;;;15.70;100.00
55032;BME280;40928;51.076;7.950;2023-07-02T08:29:05;96532.72;;;15.83;100.00
55032;BME280;40928;51.076;7.950;2023-07-02T08:31:31;96540.78;;;15.88;100.00
55032;BME280;40928;51.076;7.950;2023-07-02T08:33:56;96545.44;;;15.77;100.00
55032;BME280;40928;51.076;7.950;2023-07-02T08:36:22;96547.53;;;15.86;100.00
55032;BME280;40928;51.076;7.950;2023-07-02T08:38:48;96546.06;;;15.98;100.00
55032;BME280;40928;51.076;7.950;2023-07-02T08:41:13;96544.88;;;16.05;100.00
55032;BME280;40928;51.076;7.950;2023-07-02T08:43:39;96550.75;;;16.12;100.00
55032;BME280;40928;51.076;7.950;2023-07-02T08:46:05;96543.25;;;16.09;100.00
55032;BME280;40928;51.076;7.950;2023-07-02T08:48:34;96537.94;;;16.04;100.00
55032;BME280;40928;51.076;7.950;2023-07-02T08:50:59;96558.84;;;16.12;100.00
55032;BME280;40928;51.076;7.950;2023-07-02T08:53:25;96551.28;;;16.14;100.00
55032;BME280;40928;51.076;7.950;2023-07-02T08:55:57;96555.22;;;16.22;100.00
55032;BME280;40928;51.076;7.950;2023-07-02T08:58:23;96558.66;;;16.27;100.00
55032;BME280;40928;51.076;7.950;2023-07-02T09:01:08;96564.38;;;16.45;100.00
55032;BME280;40928;51.076;7.950;2023-07-02T09:03:34;96560.69;;;16.60;100.00
55032;BME280;40928;51.076;7.950;2023-07-02T09:06:03;96559.91;;;16.59;99.29
55032;BME280;40928;51.076;7.950;2023-07-02T09:08:29;96568.22;;;16.39;97.36
55032;BME280;40928;51.076;7.950;2023-07-02T09:11:14;96571.09;;;16.23;97.43
55032;BME280;40928;51.076;7.950;2023-07-02T09:13:48;96575.78;;;16.37;97.22
55032;BME280;40928;51.076;7.950;2023-07-02T09:16:31;96573.88;;;16.18;97.83
55032;BME280;40928;51.076;7.950;2023-07-02T09:21:22;96572.78;;;16.19;95.48
55032;BME280;40928;51.076;7.950;2023-07-02T09:23:48;96581.81;;;16.28;95.43
55032;BME280;40928;51.076;7.950;2023-07-02T09:26:21;96582.88;;;16.33;96.40
55032;BME280;40928;51.076;7.950;2023-07-02T09:28:46;96567.09;;;16.45;97.49
55032;BME280;40928;51.076;7.950;2023-07-02T09:31:12;96582.59;;;16.53;96.89
55032;BME280;40928;51.076;7.950;2023-07-02T09:33:37;96570.22;;;16.52;95.46
55032;BME280;40928;51.076;7.950;2023-07-02T09:36:03;96581.84;;;16.72;96.83
55032;BME280;40928;51.076;7.950;2023-07-02T09:38:29;96578.19;;;16.63;92.43
55032;BME280;40928;51.076;7.950;2023-07-02T09:40:55;96579.84;;;16.58;94.65
55032;BME280;40928;51.076;7.950;2023-07-02T09:43:23;96582.56;;;16.58;94.04
55032;BME280;40928;51.076;7.950;2023-07-02T09:45:52;96581.31;;;16.51;94.35
55032;BME280;40928;51.076;7.950;2023-07-02T09:48:19;96592.22;;;16.40;96.29
55032;BME280;40928;51.076;7.950;2023-07-02T09:50:47;96587.09;;;16.39;96.89
55032;BME280;40928;51.076;7.950;2023-07-02T09:53:15;96587.56;;;16.46;97.17
55032;BME280;40928;51.076;7.950;2023-07-02T09:55:44;96588.47;;;16.61;98.39
55032;BME280;40928;51.076;7.950;2023-07-02T09:58:10;96579.38;;;16.75;96.41
55032;BME280;40928;51.076;7.950;2023-07-02T10:00:37;96583.25;;;16.88;94.01
55032;BME280;40928;51.076;7.950;2023-07-02T10:03:03;96591.56;;;16.92;94.41
55032;BME280;40928;51.076;7.950;2023-07-02T10:05:31;96589.78;;;16.82;93.43
55032;BME280;40928;51.076;7.950;2023-07-02T10:07:59;96584.28;;;16.93;93.90
55032;BME280;40928;51.076;7.950;2023-07-02T10:10:36;96587.16;;;17.01;93.96
55032;BME280;40928;51.076;7.950;2023-07-02T10:13:02;96597.59;;;17.08;91.71
55032;BME280;40928;51.076;7.950;2023-07-02T10:15:28;96581.66;;;17.07;91.09
55032;BME280;40928;51.076;7.950;2023-07-02T10:17:59;96593.78;;;17.09;89.65
55032;BME280;40928;51.076;7.950;2023-07-02T10:20:40;96596.63;;;17.18;89.00
55032;BME280;40928;51.076;7.950;2023-07-02T10:23:09;96588.81;;;17.16;87.24
55032;BME280;40928;51.076;7.950;2023-07-02T10:25:36;96594.63;;;17.43;90.10
55032;BME280;40928;51.076;7.950;2023-07-02T10:28:19;96591.63;;;17.44;87.87
55032;BME280;40928;51.076;7.950;2023-07-02T10:30:47;96580.94;;;17.39;87.42
55032;BME280;40928;51.076;7.950;2023-07-02T10:33:15;96582.75;;;17.05;86.75
55032;BME280;40928;51.076;7.950;2023-07-02T10:35:42;96590.78;;;17.11;88.25
55032;BME280;40928;51.076;7.950;2023-07-02T10:38:18;96588.91;;;17.11;89.25
55032;BME280;40928;51.076;7.950;2023-07-02T10:40:45;96591.88;;;17.10;90.40
55032;BME280;40928;51.076;7.950;2023-07-02T10:43:10;96583.94;;;16.99;87.50
55032;BME280;40928;51.076;7.950;2023-07-02T10:45:36;96585.38;;;16.92;89.80
55032;BME280;40928;51.076;7.950;2023-07-02T10:48:09;96594.56;;;16.90;89.39
55032;BME280;40928;51.076;7.950;2023-07-02T10:50:35;96592.56;;;17.01;89.31
55032;BME280;40928;51.076;7.950;2023-07-02T10:53:00;96593.28;;;17.07;88.42
55032;BME280;40928;51.076;7.950;2023-07-02T10:55:26;96593.34;;;17.02;89.99
55032;BME280;40928;51.076;7.950;2023-07-02T10:58:07;96592.91;;;17.14;90.10
55032;BME280;40928;51.076;7.950;2023-07-02T11:00:33;96592.53;;;17.20;90.70
55032;BME280;40928;51.076;7.950;2023-07-02T11:02:59;96590.06;;;17.24;89.61
55032;BME280;40928;51.076;7.950;2023-07-02T11:05:25;96593.38;;;17.54;89.52
55032;BME280;40928;51.076;7.950;2023-07-02T11:07:50;96588.22;;;17.58;86.65
55032;BME280;40928;51.076;7.950;2023-07-02T11:10:23;96589.06;;;17.53;87.06
55032;BME280;40928;51.076;7.950;2023-07-02T11:12:49;96589.44;;;17.65;87.24
55032;BME280;40928;51.076;7.950;2023-07-02T11:15:16;96581.06;;;17.48;85.49
55032;BME280;40928;51.076;7.950;2023-07-02T11:17:45;96583.09;;;17.56;86.58
55032;BME280;40928;51.076;7.950;2023-07-02T11:20:12;96591.50;;;17.55;87.88
55032;BME280;40928;51.076;7.950;2023-07-02T11:22:38;96590.78;;;17.49;87.21
55032;BME280;40928;51.076;7.950;2023-07-02T11:25:14;96586.63;;;17.18;88.01
55032;BME280;40928;51.076;7.950;2023-07-02T11:27:41;96593.13;;;17.17;89.36
55032;BME280;40928;51.076;7.950;2023-07-02T11:30:07;96593.50;;;17.11;87.55
55032;BME280;40928;51.076;7.950;2023-07-02T11:32:46;96605.00;;;16.97;87.21
55032;BME280;40928;51.076;7.950;2023-07-02T11:35:14;96600.25;;;16.89;88.84
55032;BME280;40928;51.076;7.950;2023-07-02T11:37:39;96600.84;;;17.05;88.65
55032;BME280;40928;51.076;7.950;2023-07-02T11:40:05;96601.09;;;17.28;87.58
55032;BME280;40928;51.076;7.950;2023-07-02T11:42:31;96598.63;;;17.45;85.10
55032;BME280;40928;51.076;7.950;2023-07-02T11:44:56;96595.75;;;17.75;84.67
55032;BME280;40928;51.076;7.950;2023-07-02T11:47:22;96587.16;;;18.06;85.72
55032;BME280;40928;51.076;7.950;2023-07-02T11:49:47;96582.16;;;18.13;84.77
55032;BME280;40928;51.076;7.950;2023-07-02T11:52:13;96589.25;;;18.09;82.49
55032;BME280;40928;51.076;7.950;2023-07-02T11:54:40;96589.88;;;18.20;84.21
55032;BME280;40928;51.076;7.950;2023-07-02T11:57:05;96584.16;;;18.21;83.16
55032;BME280;40928;51.076;7.950;2023-07-02T11:59:31;96602.47;;;18.10;83.31
55032;BME280;40928;51.076;7.950;2023-07-02T12:01:57;96592.19;;;18.26;83.71
55032;BME280;40928;51.076;7.950;2023-07-02T12:04:22;96593.59;;;18.52;78.65
55032;BME280;40928;51.076;7.950;2023-07-02T12:06:48;96593.09;;;18.50;79.08
55032;BME280;40928;51.076;7.950;2023-07-02T12:09:13;96593.59;;;18.38;79.03
55032;BME280;40928;51.076;7.950;2023-07-02T12:11:39;96597.69;;;18.35;78.13
55032;BME280;40928;51.076;7.950;2023-07-02T12:14:05;96600.38;;;18.49;78.90
55032;BME280;40928;51.076;7.950;2023-07-02T12:16:30;96598.88;;;18.57;79.56
55032;BME280;40928;51.076;7.950;2023-07-02T12:18:56;96594.97;;;18.63;80.47
55032;BME280;40928;51.076;7.950;2023-07-02T12:21:21;96596.69;;;18.59;79.97
55032;BME280;40928;51.076;7.950;2023-07-02T12:23:47;96593.09;;;18.50;80.30
55032;BME280;40928;51.076;7.950;2023-07-02T12:26:12;96591.69;;;18.24;80.50
55032;BME280;40928;51.076;7.950;2023-07-02T12:28:38;96598.88;;;17.82;79.45
55032;BME280;40928;51.076;7.950;2023-07-02T12:31:03;96600.25;;;17.65;81.87
55032;BME280;40928;51.076;7.950;2023-07-02T12:33:29;96601.72;;;17.58;84.02
55032;BME280;40928;51.076;7.950;2023-07-02T12:35:54;96607.03;;;17.44;85.30
55032;BME280;40928;51.076;7.950;2023-07-02T12:38:20;96614.47;;;17.33;86.11
55032;BME280;40928;51.076;7.950;2023-07-02T12:40:45;96618.66;;;17.06;87.08
55032;BME280;40928;51.076;7.950;2023-07-02T12:43:11;96622.94;;;17.07;88.89
55032;BME280;40928;51.076;7.950;2023-07-02T12:45:36;96611.34;;;17.07;87.85
55032;BME280;40928;51.076;7.950;2023-07-02T12:48:02;96619.09;;;17.32;87.78
55032;BME280;40928;51.076;7.950;2023-07-02T12:50:27;96623.38;;;17.53;86.13
55032;BME280;40928;51.076;7.950;2023-07-02T12:52:53;96622.75;;;17.75;85.70
55032;BME280;40928;51.076;7.950;2023-07-02T12:55:18;96622.06;;;17.83;84.36
55032;BME280;40928;51.076;7.950;2023-07-02T12:57:44;96630.22;;;17.97;84.72